Time;durP1;ratioP1;P1;durP2;ratioP2;P2;SDS_P1;SDS_P2;PMS_P1;PMS_P2;Temp;Humidity;BMP_temperature;BMP_pressure;BME280_temperature;BME280_humidity;BME280_pressure;Samples;Min_cycle;Max_cycle;Signal;HPM_P1;HPM_P2
2021/06/05 00:01:54;;;;;;;13.73;6.43;;;;;;;;;;5072959;28;20037;-70
2021/06/05 00:04:22;;;;;;;13.88;6.75;;;;;;;;;;5072940;28;20021;-69
2021/06/05 00:06:49;;;;;;;19.48;6.72;;;;;;;;;;5072912;28;20056;-69
2021/06/05 00:09:16;;;;;;;12.95;6.80;;;;;;;;;;5072603;28;20373;-69
2021/06/05 00:11:43;;;;;;;10.93;7.30;;;;;;;;;;5072885;28;20210;-70
2021/06/05 00:14:10;;;;;;;11.77;8.18;;;;;;;;;;5054870;28;20111;-71
2021/06/05 00:16:39;;;;;;;15.38;7.55;;;;;;;;;;5054793;28;20107;-71
2021/06/05 00:19:05;;;;;;;12.18;7.53;;;;;;;;;;5072695;28;20085;-70
2021/06/05 00:21:32;;;;;;;16.23;7.38;;;;;;;;;;5054789;28;20112;-67
2021/06/05 00:23:58;;;;;;;10.05;6.75;;;;;;;;;;5054412;28;20632;-70
2021/06/05 00:26:25;;;;;;;12.95;7.07;;;;;;;;;;5054829;28;20564;-71
2021/06/05 00:28:51;;;;;;;12.52;8.63;;;;;;;;;;5054675;28;20132;-69
2021/06/05 00:31:17;;;;;;;13.80;7.15;;;;;;;;;;5054738;28;20020;-70
2021/06/05 00:33:44;;;;;;;12.25;7.60;;;;;;;;;;5072929;28;20461;-69
2021/06/05 00:36:11;;;;;;;10.93;7.82;;;;;;;;;;5072664;28;20485;-70
2021/06/05 00:38:37;;;;;;;12.23;7.85;;;;;;;;;;5072527;28;20354;-70
2021/06/05 00:41:05;;;;;;;11.88;7.57;;;;;;;;;;5072630;28;20016;-70
2021/06/05 00:43:36;;;;;;;15.40;6.70;;;;;;;;;;5072579;28;20024;-69
2021/06/05 00:46:02;;;;;;;12.57;7.43;;;;;;;;;;5072861;28;20016;-71
2021/06/05 00:48:28;;;;;;;16.08;7.85;;;;;;;;;;5054469;28;20020;-68
2021/06/05 00:50:55;;;;;;;15.18;7.82;;;;;;;;;;5054517;28;20075;-71
2021/06/05 00:53:23;;;;;;;16.45;7.70;;;;;;;;;;5072465;28;20029;-71
2021/06/05 00:55:51;;;;;;;12.35;8.10;;;;;;;;;;5054457;28;20024;-70
2021/06/05 00:58:18;;;;;;;17.25;7.78;;;;;;;;;;5072351;28;20108;-73
2021/06/05 01:00:46;;;;;;;14.63;7.32;;;;;;;;;;5056764;28;20067;-70
2021/06/05 01:03:14;;;;;;;16.23;6.93;;;;;;;;;;5076302;28;20024;-71
2021/06/05 01:05:41;;;;;;;20.67;7.60;;;;;;;;;;5075996;28;20070;-70
2021/06/05 01:08:20;;;;;;;19.58;8.02;;;;;;;;;;5075954;28;20024;-69
2021/06/05 01:10:49;;;;;;;20.48;9.13;;;;;;;;;;5075957;28;20024;-69
2021/06/05 01:13:18;;;;;;;21.08;10.98;;;;;;;;;;5075805;28;20024;-69
2021/06/05 01:15:49;;;;;;;18.75;11.18;;;;;;;;;;5057877;28;20098;-68
2021/06/05 01:18:31;;;;;;;24.40;12.07;;;;;;;;;;5075510;28;20052;-68
2021/06/05 01:21:30;;;;;;;19.02;9.93;;;;;;;;;;5075790;28;20101;-72
2021/06/05 01:23:56;;;;;;;22.27;12.00;;;;;;;;;;5075536;28;20072;-70
2021/06/05 01:26:25;;;;;;;25.00;14.48;;;;;;;;;;5075696;28;20056;-68
2021/06/05 01:28:55;;;;;;;20.92;13.27;;;;;;;;;;5057825;28;20379;-70
2021/06/05 01:31:24;;;;;;;21.52;12.73;;;;;;;;;;5075584;28;20020;-73
2021/06/05 01:33:51;;;;;;;20.30;12.30;;;;;;;;;;5075512;28;20103;-70
2021/06/05 01:36:19;;;;;;;20.15;11.68;;;;;;;;;;5075418;28;20056;-69
2021/06/05 01:38:47;;;;;;;20.90;11.77;;;;;;;;;;5057333;28;20032;-69
2021/06/05 01:41:14;;;;;;;16.85;10.52;;;;;;;;;;5075383;28;20021;-69
2021/06/05 01:43:41;;;;;;;18.77;10.10;;;;;;;;;;5075325;28;20365;-68
2021/06/05 01:46:07;;;;;;;12.38;8.10;;;;;;;;;;5075244;28;20085;-68
2021/06/05 01:48:34;;;;;;;13.82;7.57;;;;;;;;;;5075226;28;20031;-69
2021/06/05 01:51:02;;;;;;;13.60;6.75;;;;;;;;;;5075268;28;20039;-71
2021/06/05 01:53:31;;;;;;;14.25;6.75;;;;;;;;;;5057100;28;20029;-68
2021/06/05 01:56:13;;;;;;;12.30;6.45;;;;;;;;;;5075062;28;20099;-69
2021/06/05 01:58:39;;;;;;;;;;;;;;;;;;5075050;28;20427;-70
2021/06/05 02:01:06;;;;;;;11.70;5.95;;;;;;;;;;5057018;28;19908;-70
2021/06/05 02:03:32;;;;;;;10.30;5.95;;;;;;;;;;5074922;28;20029;-71
2021/06/05 02:05:59;;;;;;;13.40;6.13;;;;;;;;;;5074914;28;20017;-71
2021/06/05 02:08:27;;;;;;;11.82;6.38;;;;;;;;;;5074823;28;20153;-71
2021/06/05 02:10:55;;;;;;;10.70;5.82;;;;;;;;;;5074317;28;20115;-70
2021/06/05 02:13:24;;;;;;;10.98;5.70;;;;;;;;;;5056384;28;20031;-69
2021/06/05 02:15:55;;;;;;;14.20;5.85;;;;;;;;;;5074739;28;20101;-72
2021/06/05 02:18:32;;;;;;;12.40;6.35;;;;;;;;;;5056603;28;20028;-73
2021/06/05 02:21:01;;;;;;;11.25;6.15;;;;;;;;;;5056651;28;20048;-71
2021/06/05 02:23:48;;;;;;;14.23;6.60;;;;;;;;;;5074519;28;20112;-72
2021/06/05 02:26:15;;;;;;;13.63;6.72;;;;;;;;;;5074394;28;20058;-71
2021/06/05 02:28:42;;;;;;;10.70;7.00;;;;;;;;;;5074429;28;20373;-73
2021/06/05 02:31:09;;;;;;;10.27;6.60;;;;;;;;;;5074438;28;20388;-69
2021/06/05 02:33:36;;;;;;;10.15;5.90;;;;;;;;;;5074306;28;20028;-73
2021/06/05 02:36:03;;;;;;;13.45;7.22;;;;;;;;;;5074556;28;20021;-69
2021/06/05 02:38:30;;;;;;;9.60;6.18;;;;;;;;;;5056149;28;20553;-70
2021/06/05 02:40:57;;;;;;;10.20;6.53;;;;;;;;;;5056250;28;20166;-71
2021/06/05 02:43:26;;;;;;;14.25;6.43;;;;;;;;;;5056145;28;20028;-69
2021/06/05 02:45:59;;;;;;;8.13;6.15;;;;;;;;;;5056092;28;20481;-76
2021/06/05 02:48:37;;;;;;;13.82;7.43;;;;;;;;;;5056111;28;20507;-69
2021/06/05 02:51:04;;;;;;;19.63;7.32;;;;;;;;;;5073975;28;20488;-69
2021/06/05 02:53:30;;;;;;;15.80;8.45;;;;;;;;;;5073928;28;20091;-68
2021/06/05 02:55:56;;;;;;;16.70;7.90;;;;;;;;;;5073851;28;20116;-70
2021/06/05 02:58:22;;;;;;;16.95;8.55;;;;;;;;;;5073748;28;20036;-71
2021/06/05 03:00:49;;;;;;;15.02;7.63;;;;;;;;;;5055821;28;20029;-70
2021/06/05 03:03:17;;;;;;;24.10;7.45;;;;;;;;;;5074032;28;20032;-72
2021/06/05 03:05:46;;;;;;;10.60;6.00;;;;;;;;;;5073669;28;20025;-71
2021/06/05 03:08:18;;;;;;;11.45;6.65;;;;;;;;;;5073728;28;20403;-69
2021/06/05 03:10:45;;;;;;;15.38;6.90;;;;;;;;;;5055678;28;20108;-70
2021/06/05 03:13:11;;;;;;;15.02;6.35;;;;;;;;;;5073599;28;20048;-68
2021/06/05 03:15:38;;;;;;;12.98;6.25;;;;;;;;;;5073550;28;20052;-68
2021/06/05 03:18:05;;;;;;;9.48;5.97;;;;;;;;;;5073456;28;20032;-69
2021/06/05 03:20:34;;;;;;;18.10;6.57;;;;;;;;;;5073418;28;20033;-69
2021/06/05 03:23:00;;;;;;;16.48;9.73;;;;;;;;;;5072923;28;20024;-68
2021/06/05 03:25:27;;;;;;;22.05;12.68;;;;;;;;;;5072951;28;20125;-68
2021/06/05 03:27:53;;;;;;;28.27;15.88;;;;;;;;;;5073385;28;20028;-73
2021/06/05 03:30:20;;;;;;;22.80;13.02;;;;;;;;;;5073315;28;20082;-70
2021/06/05 03:32:46;;;;;;;30.00;16.08;;;;;;;;;;5073624;28;20161;-70
2021/06/05 03:35:13;;;;;;;37.72;17.60;;;;;;;;;;5073207;28;20032;-70
2021/06/05 03:37:40;;;;;;;28.25;17.17;;;;;;;;;;5055224;28;20602;-70
2021/06/05 03:40:07;;;;;;;26.60;15.90;;;;;;;;;;5055125;28;20060;-68
2021/06/05 03:42:34;;;;;;;21.02;14.25;;;;;;;;;;5073261;28;20051;-74
2021/06/05 03:45:00;;;;;;;24.58;15.45;;;;;;;;;;5073155;28;20028;-69
2021/06/05 03:47:26;;;;;;;25.10;16.15;;;;;;;;;;5073093;28;20016;-69
2021/06/05 03:49:53;;;;;;;26.05;18.45;;;;;;;;;;5055083;28;20532;-69
2021/06/05 03:52:23;;;;;;;36.20;24.67;;;;;;;;;;5055130;28;20024;-70
2021/06/05 03:54:53;;;;;;;28.83;19.23;;;;;;;;;;5073316;28;20364;-70
2021/06/05 03:57:20;;;;;;;42.70;22.98;;;;;;;;;;5073275;28;20060;-71
2021/06/05 03:59:47;;;;;;;41.00;25.15;;;;;;;;;;5054831;28;20036;-72
2021/06/05 04:02:14;;;;;;;28.75;15.35;;;;;;;;;;5054989;28;20469;-72
2021/06/05 04:04:41;;;;;;;28.60;12.23;;;;;;;;;;5054896;28;20034;-71
2021/06/05 04:07:09;;;;;;;16.85;8.73;;;;;;;;;;5072921;28;20092;-70
2021/06/05 04:09:36;;;;;;;17.35;7.82;;;;;;;;;;5072882;28;20024;-70
2021/06/05 04:12:03;;;;;;;24.98;8.63;;;;;;;;;;5073221;28;20369;-71
2021/06/05 04:14:30;;;;;;;14.38;6.97;;;;;;;;;;5073087;28;20020;-71
2021/06/05 04:16:56;;;;;;;19.80;8.02;;;;;;;;;;5054810;28;20067;-71
2021/06/05 04:19:23;;;;;;;16.85;7.25;;;;;;;;;;5054674;28;20131;-70
2021/06/05 04:21:49;;;;;;;19.80;6.28;;;;;;;;;;5072787;28;20021;-70
2021/06/05 04:24:15;;;;;;;11.82;6.97;;;;;;;;;;5051137;28;20049;-74
2021/06/05 04:26:41;;;;;;;17.67;6.40;;;;;;;;;;5052728;28;20100;-71
2021/06/05 04:29:07;;;;;;;17.08;6.70;;;;;;;;;;5052687;28;20060;-72
2021/06/05 04:31:34;;;;;;;18.75;6.90;;;;;;;;;;5052988;28;20059;-71
2021/06/05 04:34:00;;;;;;;18.88;6.50;;;;;;;;;;5052639;28;20028;-71
2021/06/05 04:36:26;;;;;;;16.80;6.53;;;;;;;;;;5054883;28;20484;-70
2021/06/05 04:38:52;;;;;;;10.18;6.28;;;;;;;;;;5054873;28;20033;-70
2021/06/05 04:41:19;;;;;;;11.57;6.53;;;;;;;;;;5056514;28;20033;-70
2021/06/05 04:43:45;;;;;;;12.18;6.53;;;;;;;;;;5056429;28;20021;-70
2021/06/05 04:46:13;;;;;;;11.73;6.00;;;;;;;;;;5055094;28;20033;-70
2021/06/05 04:48:39;;;;;;;13.90;7.25;;;;;;;;;;5056592;28;20492;-70
2021/06/05 04:51:05;;;;;;;11.80;5.88;;;;;;;;;;5056020;28;20489;-71
2021/06/05 04:53:32;;;;;;;10.93;7.10;;;;;;;;;;5056016;28;20025;-69
2021/06/05 04:55:58;;;;;;;12.10;5.75;;;;;;;;;;5056202;28;20017;-69
2021/06/05 04:58:24;;;;;;;9.23;6.28;;;;;;;;;;5056094;28;20109;-69
2021/06/05 05:00:52;;;;;;;8.32;5.97;;;;;;;;;;5054820;28;20025;-71
2021/06/05 05:03:19;;;;;;;15.75;7.57;;;;;;;;;;5056116;28;20021;-69
2021/06/05 05:05:46;;;;;;;13.10;6.63;;;;;;;;;;5054737;28;20171;-71
2021/06/05 05:08:13;;;;;;;10.95;7.05;;;;;;;;;;5056277;28;20104;-72
2021/06/05 05:10:40;;;;;;;14.07;6.75;;;;;;;;;;5055983;28;20021;-70
2021/06/05 05:13:06;;;;;;;10.65;6.05;;;;;;;;;;5055966;28;20469;-68
2021/06/05 05:15:33;;;;;;;10.50;6.95;;;;;;;;;;5055856;28;20025;-70
2021/06/05 05:17:59;;;;;;;11.18;6.20;;;;;;;;;;5055794;28;20048;-70
2021/06/05 05:20:33;;;;;;;9.75;6.57;;;;;;;;;;5055715;28;20465;-68
2021/06/05 05:23:00;;;;;;;8.82;6.13;;;;;;;;;;5055742;28;20056;-68
2021/06/05 05:25:26;;;;;;;8.52;5.68;;;;;;;;;;5070000;28;20047;-69
2021/06/05 05:27:52;;;;;;;10.43;6.25;;;;;;;;;;5057524;28;20426;-72
2021/06/05 05:30:21;;;;;;;8.80;6.00;;;;;;;;;;5075775;28;20035;-71
2021/06/05 05:32:47;;;;;;;10.50;5.43;;;;;;;;;;5075547;28;20021;-70
2021/06/05 05:35:14;;;;;;;10.48;5.68;;;;;;;;;;5075417;28;20028;-70
2021/06/05 05:37:41;;;;;;;10.02;6.00;;;;;;;;;;5075382;28;20034;-70
2021/06/05 05:40:07;;;;;;;8.15;6.15;;;;;;;;;;5075112;28;20029;-72
2021/06/05 05:42:33;;;;;;;10.25;6.13;;;;;;;;;;5057379;28;20025;-69
2021/06/05 05:45:00;;;;;;;7.20;5.80;;;;;;;;;;5057331;28;20457;-69
2021/06/05 05:47:26;;;;;;;11.38;6.00;;;;;;;;;;5074892;28;20078;-69
2021/06/05 05:49:52;;;;;;;10.15;6.25;;;18.00;99.90;;;;;;5056992;28;20506;-71
2021/06/05 05:52:18;;;;;;;10.35;5.95;;;18.00;99.90;;;;;;5074293;28;20028;-71
2021/06/05 05:54:43;;;;;;;11.00;5.63;;;18.10;99.90;;;;;;5074934;28;20024;-70
2021/06/05 05:57:09;;;;;;;13.35;6.28;;;18.10;99.90;;;;;;5074988;28;20024;-70
2021/06/05 05:59:35;;;;;;;10.05;6.25;;;18.20;99.90;;;;;;5056593;28;20037;-70
2021/06/05 06:02:02;;;;;;;10.75;5.22;;;18.30;99.90;;;;;;5075064;28;20086;-69
2021/06/05 06:04:28;;;;;;;13.90;6.72;;;18.40;99.90;;;;;;5056724;28;20381;-68
2021/06/05 06:06:54;;;;;;;9.25;5.82;;;18.60;99.80;;;;;;5056387;28;20024;-70
2021/06/05 06:09:20;;;;;;;10.60;6.03;;;18.70;99.90;;;;;;5073885;28;20473;-69
2021/06/05 06:11:46;;;;;;;12.55;6.38;;;18.80;99.60;;;;;;5074710;28;20107;-70
2021/06/05 06:14:17;;;;;;;11.07;5.82;;;18.90;98.90;;;;;;5056740;28;20350;-71
2021/06/05 06:16:43;;;;;;;11.07;6.03;;;19.10;99.30;;;;;;5074339;28;20036;-70
2021/06/05 06:19:13;;;;;;;9.85;4.85;;;19.20;98.50;;;;;;5074170;28;20037;-70
2021/06/05 06:21:43;;;;;;;12.68;5.22;;;19.30;97.10;;;;;;5056494;28;20035;-70
2021/06/05 06:24:10;;;;;;;12.35;5.00;;;19.40;97.20;;;;;;5074311;28;20044;-71
2021/06/05 06:26:37;;;;;;;7.03;4.60;;;19.50;97.40;;;;;;5074739;28;20523;-71
2021/06/05 06:29:15;;;;;;;8.50;5.25;;;19.60;96.80;;;;;;5056452;28;20029;-71
2021/06/05 06:31:43;;;;;;;8.02;5.45;;;19.70;96.00;;;;;;5056372;28;20028;-70
2021/06/05 06:34:09;;;;;;;11.27;5.93;;;19.90;95.80;;;;;;5074368;28;20043;-71
2021/06/05 06:36:38;;;;;;;10.23;5.20;;;20.00;96.30;;;;;;5056334;28;20021;-69
2021/06/05 06:39:05;;;;;;;13.57;5.13;;;20.10;97.50;;;;;;5056001;28;20406;-71
2021/06/05 06:41:32;;;;;;;12.10;5.30;;;20.20;97.80;;;;;;5056132;28;20043;-73
2021/06/05 06:44:00;;;;;;;12.65;5.32;;;20.30;97.00;;;;;;5074013;28;20078;-72
2021/06/05 06:46:32;;;;;;;6.80;4.50;;;20.40;96.50;;;;;;5073751;28;20035;-73
2021/06/05 06:49:00;;;;;;;11.98;4.07;;;20.50;95.50;;;;;;5074015;28;20064;-70
2021/06/05 06:51:26;;;;;;;11.25;4.90;;;20.50;95.10;;;;;;5056056;28;20029;-72
2021/06/05 06:53:53;;;;;;;15.50;5.13;;;20.60;95.10;;;;;;5056120;28;20039;-70
2021/06/05 06:56:19;;;;;;;10.23;4.88;;;20.70;95.30;;;;;;5055528;28;20021;-69
2021/06/05 06:58:47;;;;;;;7.22;5.55;;;20.80;95.80;;;;;;5073303;28;20524;-71
2021/06/05 07:01:14;;;;;;;12.13;4.75;;;20.90;95.60;;;;;;5073718;28;20031;-72
2021/06/05 07:03:40;;;;;;;10.02;6.47;;;21.10;96.60;;;;;;5073793;28;20025;-69
2021/06/05 07:06:06;;;;;;;14.30;7.40;;;21.20;95.00;;;;;;5055755;28;20111;-69
2021/06/05 07:08:35;;;;;;;11.38;6.63;;;21.30;95.00;;;;;;5055981;28;20036;-69
2021/06/05 07:11:07;;;;;;;19.95;10.63;;;21.40;95.20;;;;;;5073911;28;20099;-70
2021/06/05 07:13:33;;;;;;;35.67;16.63;;;21.50;95.10;;;;;;5073680;28;20032;-70
2021/06/05 07:16:00;;;;;;;17.13;9.57;;;21.60;94.80;;;;;;5055556;28;20036;-70
2021/06/05 07:18:28;;;;;;;33.97;21.13;;;21.70;94.50;;;;;;5055476;28;20503;-70
2021/06/05 07:20:55;;;;;;;40.35;21.55;;;21.80;94.50;;;;;;5055516;28;20028;-71
2021/06/05 07:23:23;;;;;;;32.63;18.42;;;;;;;;;;5073130;28;20451;-70
2021/06/05 07:25:50;;;;;;;15.13;8.18;;;;;;;;;;5073525;28;20080;-70
2021/06/05 07:28:29;;;;;;;16.70;9.93;;;22.20;91.80;;;;;;5055684;28;20063;-71
2021/06/05 07:30:59;;;;;;;21.23;10.70;;;22.30;91.70;;;;;;5055427;28;20078;-70
2021/06/05 07:33:25;;;;;;;21.73;11.05;;;22.40;91.70;;;;;;5073445;28;20468;-68
2021/06/05 07:35:54;;;;;;;28.50;14.13;;;22.60;92.30;;;;;;5055228;28;20107;-69
2021/06/05 07:38:21;;;;;;;35.92;20.52;;;22.70;91.10;;;;;;5055234;28;20381;-71
2021/06/05 07:40:48;;;;;;;13.98;7.60;;;22.80;90.90;;;;;;5072972;28;20358;-71
2021/06/05 07:43:16;;;;;;;10.20;5.55;;;23.00;87.60;;;;;;5073074;28;20373;-69
2021/06/05 07:45:43;;;;;;;37.25;13.10;;;23.00;90.20;;;;;;5055067;28;20052;-68
2021/06/05 07:48:09;;;;;;;35.13;20.65;;;23.20;90.70;;;;;;5073085;28;20133;-70
2021/06/05 07:50:36;;;;;;;14.32;6.90;;;23.20;90.20;;;;;;5055014;28;20063;-71
2021/06/05 07:53:02;;;;;;;17.60;9.35;;;23.40;86.90;;;;;;5053894;28;20028;-70
2021/06/05 07:55:28;;;;;;;32.70;14.07;;;23.40;86.60;;;;;;5072091;28;20469;-69
2021/06/05 07:57:54;;;;;;;13.98;7.60;;;23.50;89.80;;;;;;5071732;28;20032;-68
2021/06/05 08:00:23;;;;;;;8.38;5.82;;;23.60;83.60;;;;;;5071771;28;20518;-69
2021/06/05 08:02:50;;;;;;;8.90;6.22;;;23.70;84.40;;;;;;5072028;28;20477;-71
2021/06/05 08:05:18;;;;;;;12.52;5.55;;;23.80;83.60;;;;;;5072517;28;20032;-68
2021/06/05 08:07:44;;;;;;;9.52;5.97;;;23.90;80.90;;;;;;5072916;28;20031;-69
2021/06/05 08:10:11;;;;;;;20.92;9.80;;;24.10;80.50;;;;;;5056385;28;20030;-70
2021/06/05 08:12:37;;;;;;;6.07;4.00;;;24.20;82.90;;;;;;5058990;28;20036;-69
2021/06/05 08:15:07;;;;;;;6.00;3.35;;;24.30;81.10;;;;;;5076794;28;20358;-68
2021/06/05 08:17:33;;;;;;;3.92;3.53;;;24.40;77.30;;;;;;5058880;28;20021;-69
2021/06/05 08:19:59;;;;;;;3.42;3.00;;;;;;;;;;5058412;28;20071;-68
2021/06/05 08:22:27;;;;;;;6.13;4.30;;;;;;;;;;5076424;28;20110;-70
2021/06/05 08:24:53;;;;;;;6.18;3.40;;;24.80;75.60;;;;;;5076398;28;20053;-71
2021/06/05 08:27:19;;;;;;;6.40;3.30;;;25.00;76.00;;;;;;5076780;28;20107;-71
2021/06/05 08:29:45;;;;;;;7.47;3.10;;;25.10;73.10;;;;;;5058734;28;20032;-71
2021/06/05 08:32:13;;;;;;;7.32;2.75;;;25.20;74.70;;;;;;5076690;28;20461;-70
2021/06/05 08:34:38;;;;;;;7.13;2.88;;;25.20;71.90;;;;;;5073214;28;20479;-70
2021/06/05 08:37:05;;;;;;;7.18;2.78;;;25.40;71.60;;;;;;5076170;28;20029;-68
2021/06/05 08:39:31;;;;;;;7.10;2.90;;;25.40;73.40;;;;;;5076230;28;20028;-69
2021/06/05 08:42:00;;;;;;;6.03;3.05;;;25.60;70.70;;;;;;5076419;28;20037;-70
2021/06/05 08:44:37;;;;;;;2.65;2.17;;;25.70;72.50;;;;;;5076619;28;20040;-69
2021/06/05 08:47:12;;;;;;;3.40;2.50;;;25.90;69.70;;;;;;5076200;28;20029;-71
2021/06/05 08:49:42;;;;;;;3.83;2.58;;;25.90;73.50;;;;;;5058398;28;20404;-68
2021/06/05 08:52:08;;;;;;;3.42;2.50;;;26.00;68.80;;;;;;5076183;28;20089;-70
2021/06/05 08:54:48;;;;;;;6.78;2.85;;;26.10;69.40;;;;;;5058134;28;20048;-69
2021/06/05 08:57:35;;;;;;;5.85;3.13;;;26.20;68.00;;;;;;5076229;28;20648;-69
2021/06/05 09:00:13;;;;;;;4.90;2.65;;;26.30;67.70;;;;;;5075660;28;20020;-68
2021/06/05 09:02:39;;;;;;;4.72;2.45;;;26.40;67.70;;;;;;5076020;28;20032;-69
2021/06/05 09:05:09;;;;;;;4.18;2.13;;;26.50;66.30;;;;;;5075858;28;20503;-68
2021/06/05 09:07:36;;;;;;;3.97;2.05;;;26.60;62.60;;;;;;5075727;28;20478;-70
2021/06/05 09:10:08;;;;;;;3.05;2.63;;;26.70;63.80;;;;;;5057812;28;20032;-68
2021/06/05 09:12:34;;;;;;;5.03;2.35;;;26.80;64.50;;;;;;5058117;28;20079;-70
2021/06/05 09:15:00;;;;;;;3.42;2.35;;;26.90;65.90;;;;;;5075750;28;20070;-70
2021/06/05 09:17:37;;;;;;;4.22;1.88;;;27.10;61.90;;;;;;5057755;28;20032;-71
2021/06/05 09:20:34;;;;;;;3.75;1.90;;;27.20;60.80;;;;;;5057446;28;20025;-66
2021/06/05 09:23:01;;;;;;;6.40;2.30;;;27.30;61.40;;;;;;5075520;28;20477;-68
2021/06/05 09:25:34;;;;;;;4.07;2.08;;;27.40;59.70;;;;;;5057411;28;20056;-69
2021/06/05 09:28:42;;;;;;;5.55;2.00;;;27.70;60.10;;;;;;5057581;28;20025;-69
2021/06/05 09:31:21;;;;;;;4.50;2.20;;;27.70;58.50;;;;;;5057161;28;20111;-67
2021/06/05 09:33:47;;;;;;;4.22;1.83;;;27.60;62.10;;;;;;5048535;28;20032;-70
2021/06/05 09:36:14;;;;;;;4.63;1.75;;;;;;;;;;5055799;28;20444;-70
2021/06/05 09:38:47;;;;;;;1.88;1.70;;;;;;;;;;5075075;28;20437;-69
2021/06/05 09:41:21;;;;;;;2.85;1.98;;;;;;;;;;5075395;28;20032;-70
2021/06/05 09:43:49;;;;;;;8.38;2.78;;;;;;;;;;5074982;28;20166;-70
2021/06/05 09:46:21;;;;;;;2.92;2.20;;;;;;;;;;5056517;28;20062;-71
2021/06/05 09:48:49;;;;;;;3.40;1.80;;;;;;;;;;5075124;28;20043;-69
2021/06/05 09:51:27;;;;;;;3.83;2.13;;;;;;;;;;5057180;28;20016;-70
2021/06/05 09:54:23;;;;;;;1.92;1.52;;;;;;;;;;5056736;28;20028;-71
2021/06/05 09:56:49;;;;;;;4.80;1.80;;;;;;;;;;5057377;28;20489;-70
2021/06/05 09:59:32;;;;;;;2.58;2.17;;;;;;;;;;5074725;28;20032;-69
2021/06/05 10:02:00;;;;;;;2.17;1.98;;;;;;;;;;5075231;28;20033;-71
2021/06/05 10:04:28;;;;;;;4.78;1.70;;;;;;;;;;5075123;28;20027;-73
2021/06/05 10:06:56;;;;;;;2.55;1.90;;;;;;;;;;5074919;28;20016;-72
2021/06/05 10:09:22;;;;;;;3.78;1.80;;;;;;;;;;5074347;28;20028;-71
2021/06/05 10:11:50;;;;;;;1.98;1.85;;;;;;;;;;5074675;28;20036;-71
2021/06/05 10:14:19;;;;;;;1.95;1.85;;;;;;;;;;5074173;28;20381;-73
2021/06/05 10:16:47;;;;;;;3.03;1.40;;;;;;;;;;5055992;28;20096;-70
2021/06/05 10:19:32;;;;;;;5.60;2.08;;;;;;;;;;5073875;28;20029;-69
2021/06/05 10:21:58;;;;;;;2.88;1.40;;;;;;;;;;5074750;28;20107;-72
2021/06/05 10:24:30;;;;;;;4.00;1.70;;;;;;;;;;5074150;28;20055;-73
2021/06/05 10:26:59;;;;;;;1.90;1.70;;;;;;;;;;5074500;28;20017;-71
2021/06/05 10:29:44;;;;;;;2.72;2.00;;;;;;;;;;5056441;28;20029;-73
2021/06/05 10:32:19;;;;;;;2.15;1.80;;;;;;;;;;5073586;28;20033;-72
2021/06/05 10:34:49;;;;;;;1.90;1.73;;;;;;;;;;5056418;28;20388;-71
2021/06/05 10:37:17;;;;;;;3.00;1.90;;;;;;;;;;5056396;28;20369;-73
2021/06/05 10:39:44;;;;;;;2.60;1.80;;;;;;;;;;5073924;28;20115;-71
2021/06/05 10:42:16;;;;;;;2.70;1.80;;;;;;;;;;5073973;28;20100;-71
2021/06/05 10:44:42;;;;;;;4.10;2.00;;;;;;;;;;5056158;28;20032;-72
2021/06/05 10:47:20;;;;;;;1.80;1.70;;;;;;;;;;5074074;28;20016;-72
2021/06/05 10:49:54;;;;;;;2.42;1.75;;;;;;;;;;5074050;28;20028;-70
2021/06/05 10:52:24;;;;;;;3.35;1.70;;;;;;;;;;5056074;28;20067;-69
2021/06/05 10:54:52;;;;;;;5.07;2.13;;;;;;;;;;5073968;28;20024;-70
2021/06/05 10:57:21;;;;;;;8.35;1.98;;;;;;;;;;5055205;28;20033;-70
2021/06/05 10:59:53;;;;;;;4.22;1.70;;;;;;;;;;5072786;28;20028;-71
2021/06/05 11:02:40;;;;;;;1.98;1.67;;;;;;;;;;5055828;28;20115;-72
2021/06/05 11:05:19;;;;;;;5.07;1.95;;;;;;;;;;5073756;28;20025;-73
2021/06/05 11:07:47;;;;;;;2.90;1.80;;;;;;;;;;5073745;28;20021;-71
2021/06/05 11:10:32;;;;;;;3.45;2.00;;;;;;;;;;5073620;28;20354;-70
2021/06/05 11:12:58;;;;;;;1.85;1.75;;;;;;;;;;5055552;28;20032;-69
2021/06/05 11:15:32;;;;;;;4.47;2.20;;;;;;;;;;5073638;28;20106;-71
2021/06/05 11:18:19;;;;;;;2.42;2.00;;;;;;;;;;5054181;28;20082;-71
2021/06/05 11:20:45;;;;;;;4.20;1.52;;;;;;;;;;5041470;28;20037;-70
2021/06/05 11:23:12;;;;;;;4.22;2.47;;;;;;;;;;5073669;28;20473;-71
2021/06/05 11:25:44;;;;;;;2.53;2.28;;;;;;;;;;5049016;28;20136;-71
2021/06/05 11:28:46;;;;;;;4.72;2.63;;;;;;;;;;5052071;28;20079;-71
2021/06/05 11:31:30;;;;;;;4.45;2.70;;;;;;;;;;4994726;28;20048;-70
2021/06/05 11:33:57;;;;;;;5.72;2.10;;;;;;;;;;4995117;28;20054;-73
2021/06/05 11:36:38;;;;;;;4.00;2.10;;;;;;;;;;5012878;28;20026;-69
2021/06/05 11:39:22;;;;;;;3.17;2.53;;;;;;;;;;5013018;28;20057;-68
2021/06/05 11:41:50;;;;;;;2.85;1.60;;;;;;;;;;5012150;28;20120;-70
2021/06/05 11:44:19;;;;;;;2.95;2.30;;;;;;;;;;5011717;28;20032;-71
2021/06/05 11:46:47;;;;;;;4.30;2.17;;;;;;;;;;5012104;28;20038;-69
2021/06/05 11:49:31;;;;;;;9.25;2.63;;;;;;;;;;4995908;28;20026;-69
2021/06/05 11:52:17;;;;;;;3.70;2.15;;;;;;;;;;5011932;28;20453;-70
2021/06/05 11:54:43;;;;;;;4.30;2.03;;;;;;;;;;4994596;28;20054;-70
2021/06/05 11:57:12;;;;;;;4.22;2.17;;;;;;;;;;5011110;28;20026;-70
2021/06/05 11:59:45;;;;;;;3.40;2.05;;;;;;;;;;5010810;28;20486;-70
2021/06/05 12:02:32;;;;;;;1.95;1.75;;;;;;;;;;5010790;28;20068;-69
2021/06/05 12:05:05;;;;;;;2.67;1.77;;;;;;;;;;5028078;28;20440;-69
2021/06/05 12:07:39;;;;;;;2.95;1.75;;;;;;;;;;5052271;28;20021;-72
2021/06/05 12:10:07;;;;;;;3.10;1.65;;;;;;;;;;5052770;28;20428;-68
2021/06/05 12:12:38;;;;;;;7.53;2.25;;;;;;;;;;5051516;28;20021;-70
2021/06/05 12:15:09;;;;;;;1.80;1.67;;;;;;;;;;5052826;28;20013;-70
2021/06/05 12:17:35;;;;;;;2.45;1.63;;;;;;;;;;5052842;28;20071;-71
2021/06/05 12:20:06;;;;;;;6.30;1.88;;;;;;;;;;5052707;28;20029;-69
2021/06/05 12:22:33;;;;;;;3.75;1.70;;;;;;;;;;5052975;28;20087;-69
2021/06/05 12:24:59;;;;;;;1.85;1.70;;;42.00;32.70;;;;;;5051268;28;20057;-69
2021/06/05 12:27:36;;;;;;;1.88;1.60;;;42.00;32.90;;;;;;5052765;28;20032;-70
2021/06/05 12:30:11;;;;;;;7.05;1.70;;;42.60;32.40;;;;;;5051393;28;20103;-68
2021/06/05 12:32:40;;;;;;;2.05;1.50;;;43.10;31.70;;;;;;5050395;28;20095;-70
2021/06/05 12:35:38;;;;;;;1.52;1.42;;;43.40;31.60;;;;;;5050164;28;20112;-70
2021/06/05 12:38:06;;;;;;;1.60;1.50;;;43.40;32.20;;;;;;5028568;28;20048;-72
2021/06/05 12:40:38;;;;;;;2.92;1.45;;;43.60;31.00;;;;;;5028926;28;20042;-70
2021/06/05 12:43:07;;;;;;;4.18;1.80;;;43.80;29.90;;;;;;5029596;28;20534;-70
2021/06/05 12:45:33;;;;;;;3.08;1.40;;;43.80;29.70;;;;;;5029582;28;20144;-70
2021/06/05 12:48:00;;;;;;;1.92;1.10;;;44.00;30.70;;;;;;5013669;28;20056;-71
2021/06/05 12:50:33;;;;;;;2.42;1.50;;;44.70;30.20;;;;;;5030197;28;20033;-69
2021/06/05 12:53:00;;;;;;;10.45;1.63;;;45.00;29.00;;;;;;5030228;28;20112;-69
2021/06/05 12:55:42;;;;;;;2.80;1.40;;;45.20;28.50;;;;;;5030754;28;20034;-70
2021/06/05 12:58:31;;;;;;;2.05;1.42;;;45.50;28.90;;;;;;5033930;28;20103;-70
2021/06/05 13:00:56;;;;;;;1.40;1.30;;;45.90;28.90;;;;;;5024804;28;20092;-71
2021/06/05 13:03:27;;;;;;;1.63;1.50;;;45.50;28.40;;;;;;5033730;28;20061;-70
2021/06/05 13:06:16;;;;;;;2.63;1.25;;;45.60;28.70;;;;;;5017201;28;20489;-71
2021/06/05 13:08:44;;;;;;;1.92;1.20;;;46.00;27.90;;;;;;5033661;28;20057;-70
2021/06/05 13:11:11;;;;;;;3.83;1.17;;;46.10;28.50;;;;;;5033572;28;20490;-69
2021/06/05 13:13:58;;;;;;;1.30;1.30;;;45.50;28.30;;;;;;5044339;28;20047;-70
2021/06/05 13:16:24;;;;;;;2.58;1.20;;;46.00;28.10;;;;;;5056198;28;20029;-70
2021/06/05 13:18:51;;;;;;;3.17;1.42;;;45.70;28.30;;;;;;5055782;28;20032;-70
2021/06/05 13:21:27;;;;;;;3.75;1.50;;;46.40;28.90;;;;;;5055827;28;20033;-69
2021/06/05 13:24:17;;;;;;;1.77;1.20;;;46.60;27.90;;;;;;5054471;28;20470;-71
2021/06/05 13:26:44;;;;;;;1.10;1.10;;;47.10;28.60;;;;;;5055821;28;20076;-70
2021/06/05 13:29:29;;;;;;;1.58;1.35;;;47.40;28.30;;;;;;5054331;28;20037;-71
2021/06/05 13:32:05;;;;;;;3.38;1.30;;;46.50;28.50;;;;;;5055586;28;20462;-70
2021/06/05 13:34:38;;;;;;;2.85;1.40;;;47.00;28.00;;;;;;5054311;28;20466;-70
2021/06/05 13:37:19;;;;;;;2.15;1.33;;;47.30;27.80;;;;;;5055619;28;20025;-70
2021/06/05 13:39:50;;;;;;;1.50;1.20;;;47.80;27.50;;;;;;5054091;28;20025;-71
2021/06/05 13:42:18;;;;;;;1.48;1.20;;;47.90;28.10;;;;;;5055342;28;20075;-72
2021/06/05 13:44:44;;;;;;;1.63;1.23;;;48.20;27.80;;;;;;5055417;28;20033;-71
2021/06/05 13:47:11;;;;;;;2.20;1.17;;;47.50;28.10;;;;;;5055667;28;20120;-71
2021/06/05 13:49:37;;;;;;;1.65;1.42;;;48.00;27.70;;;;;;5055185;28;20064;-72
2021/06/05 13:52:17;;;;;;;1.50;1.40;;;48.30;28.10;;;;;;5055542;28;20067;-72
2021/06/05 13:54:44;;;;;;;4.88;1.60;;;48.10;27.50;;;;;;5055222;28;20017;-71
2021/06/05 13:57:11;;;;;;;1.73;1.42;;;47.80;27.60;;;;;;5055206;28;20037;-71
2021/06/05 13:59:37;;;;;;;3.40;1.30;;;48.00;27.80;;;;;;5053740;28;20064;-72
2021/06/05 14:02:04;;;;;;;1.83;1.08;;;48.30;27.50;;;;;;5055058;28;20158;-71
2021/06/05 14:04:30;;;;;;;2.63;1.45;;;48.60;27.70;;;;;;5054694;28;20401;-70